sensor_id;sensor_type;location;lat;lon;timestamp;P1;durP1;ratioP1;P2;durP2;ratioP2
10721;SDS011;5412;59.450;18.124;2023-02-28T00:01:33;0.60;;;0.60;;
10721;SDS011;5412;59.450;18.124;2023-02-28T00:03:59;1.00;;;0.70;;
10721;SDS011;5412;59.450;18.124;2023-02-28T00:06:25;1.37;;;0.80;;
10721;SDS011;5412;59.450;18.124;2023-02-28T00:08:51;0.87;;;0.70;;
10721;SDS011;5412;59.450;18.124;2023-02-28T00:11:17;0.50;;;0.50;;
10721;SDS011;5412;59.450;18.124;2023-02-28T00:13:44;0.50;;;0.50;;
10721;SDS011;5412;59.450;18.124;2023-02-28T00:16:15;1.77;;;0.80;;
10721;SDS011;5412;59.450;18.124;2023-02-28T00:18:45;1.10;;;0.60;;
10721;SDS011;5412;59.450;18.124;2023-02-28T00:21:12;0.40;;;0.40;;
10721;SDS011;5412;59.450;18.124;2023-02-28T00:23:38;0.67;;;0.50;;
10721;SDS011;5412;59.450;18.124;2023-02-28T00:26:04;0.60;;;0.60;;
10721;SDS011;5412;59.450;18.124;2023-02-28T00:28:30;0.50;;;0.50;;
10721;SDS011;5412;59.450;18.124;2023-02-28T00:30:56;0.60;;;0.60;;
10721;SDS011;5412;59.450;18.124;2023-02-28T00:33:22;0.60;;;0.60;;
10721;SDS011;5412;59.450;18.124;2023-02-28T00:35:48;0.60;;;0.60;;
10721;SDS011;5412;59.450;18.124;2023-02-28T00:38:16;0.87;;;0.83;;
10721;SDS011;5412;59.450;18.124;2023-02-28T00:40:42;0.40;;;0.40;;
10721;SDS011;5412;59.450;18.124;2023-02-28T00:43:08;0.97;;;0.63;;
10721;SDS011;5412;59.450;18.124;2023-02-28T00:45:34;0.70;;;0.70;;
10721;SDS011;5412;59.450;18.124;2023-02-28T00:48:00;0.70;;;0.70;;
10721;SDS011;5412;59.450;18.124;2023-02-28T00:50:25;3.53;;;1.00;;
10721;SDS011;5412;59.450;18.124;2023-02-28T00:52:51;0.67;;;0.60;;
10721;SDS011;5412;59.450;18.124;2023-02-28T00:55:17;0.70;;;0.67;;
10721;SDS011;5412;59.450;18.124;2023-02-28T00:57:43;1.03;;;0.70;;
10721;SDS011;5412;59.450;18.124;2023-02-28T01:00:09;0.90;;;0.63;;
10721;SDS011;5412;59.450;18.124;2023-02-28T01:02:36;1.17;;;0.60;;
10721;SDS011;5412;59.450;18.124;2023-02-28T01:05:01;0.60;;;0.60;;
10721;SDS011;5412;59.450;18.124;2023-02-28T01:07:28;0.80;;;0.50;;
10721;SDS011;5412;59.450;18.124;2023-02-28T01:09:54;0.50;;;0.50;;
10721;SDS011;5412;59.450;18.124;2023-02-28T01:12:19;0.60;;;0.60;;
10721;SDS011;5412;59.450;18.124;2023-02-28T01:14:45;0.60;;;0.60;;
10721;SDS011;5412;59.450;18.124;2023-02-28T01:17:11;1.50;;;0.63;;
10721;SDS011;5412;59.450;18.124;2023-02-28T01:19:37;1.80;;;1.10;;
10721;SDS011;5412;59.450;18.124;2023-02-28T01:22:03;0.60;;;0.60;;
10721;SDS011;5412;59.450;18.124;2023-02-28T01:24:30;1.07;;;0.70;;
10721;SDS011;5412;59.450;18.124;2023-02-28T01:26:56;0.97;;;0.60;;
10721;SDS011;5412;59.450;18.124;2023-02-28T01:29:21;1.20;;;0.70;;
10721;SDS011;5412;59.450;18.124;2023-02-28T01:31:47;0.67;;;0.67;;
10721;SDS011;5412;59.450;18.124;2023-02-28T01:34:13;0.60;;;0.60;;
10721;SDS011;5412;59.450;18.124;2023-02-28T01:36:38;0.50;;;0.50;;
10721;SDS011;5412;59.450;18.124;2023-02-28T01:39:04;0.60;;;0.60;;
10721;SDS011;5412;59.450;18.124;2023-02-28T01:41:31;0.47;;;0.43;;
10721;SDS011;5412;59.450;18.124;2023-02-28T01:43:59;0.57;;;0.57;;
10721;SDS011;5412;59.450;18.124;2023-02-28T01:46:28;0.40;;;0.40;;
10721;SDS011;5412;59.450;18.124;2023-02-28T01:49:00;1.20;;;0.60;;
10721;SDS011;5412;59.450;18.124;2023-02-28T01:51:35;0.60;;;0.60;;
10721;SDS011;5412;59.450;18.124;2023-02-28T01:54:25;0.77;;;0.60;;
10721;SDS011;5412;59.450;18.124;2023-02-28T01:56:58;2.07;;;0.53;;
10721;SDS011;5412;59.450;18.124;2023-02-28T01:59:26;1.50;;;0.57;;
10721;SDS011;5412;59.450;18.124;2023-02-28T02:02:14;0.70;;;0.50;;
10721;SDS011;5412;59.450;18.124;2023-02-28T02:04:44;0.60;;;0.60;;
10721;SDS011;5412;59.450;18.124;2023-02-28T02:07:23;0.63;;;0.63;;
10721;SDS011;5412;59.450;18.124;2023-02-28T02:09:59;0.50;;;0.50;;
10721;SDS011;5412;59.450;18.124;2023-02-28T02:40:29;0.40;;;0.40;;
10721;SDS011;5412;59.450;18.124;2023-02-28T02:45:49;1.20;;;0.80;;
10721;SDS011;5412;59.450;18.124;2023-02-28T02:48:16;0.87;;;0.70;;
10721;SDS011;5412;59.450;18.124;2023-02-28T02:50:50;0.50;;;0.50;;
10721;SDS011;5412;59.450;18.124;2023-02-28T02:53:20;0.40;;;0.40;;
10721;SDS011;5412;59.450;18.124;2023-02-28T02:55:50;1.27;;;0.50;;
10721;SDS011;5412;59.450;18.124;2023-02-28T02:58:20;0.50;;;0.50;;
10721;SDS011;5412;59.450;18.124;2023-02-28T03:00:53;0.50;;;0.50;;
10721;SDS011;5412;59.450;18.124;2023-02-28T03:03:22;0.43;;;0.43;;
10721;SDS011;5412;59.450;18.124;2023-02-28T03:05:54;0.83;;;0.50;;
10721;SDS011;5412;59.450;18.124;2023-02-28T03:08:20;0.50;;;0.50;;
10721;SDS011;5412;59.450;18.124;2023-02-28T03:10:50;0.40;;;0.40;;
10721;SDS011;5412;59.450;18.124;2023-02-28T03:27:29;1.60;;;0.30;;
10721;SDS011;5412;59.450;18.124;2023-02-28T03:30:03;0.33;;;0.33;;
10721;SDS011;5412;59.450;18.124;2023-02-28T03:32:45;0.40;;;0.30;;
10721;SDS011;5412;59.450;18.124;2023-02-28T03:35:23;0.47;;;0.47;;
10721;SDS011;5412;59.450;18.124;2023-02-28T03:38:15;0.40;;;0.40;;
10721;SDS011;5412;59.450;18.124;2023-02-28T03:40:55;0.40;;;0.40;;
10721;SDS011;5412;59.450;18.124;2023-02-28T03:43:28;0.30;;;0.30;;
10721;SDS011;5412;59.450;18.124;2023-02-28T03:45:57;1.20;;;0.30;;
10721;SDS011;5412;59.450;18.124;2023-02-28T03:48:50;0.47;;;0.47;;
10721;SDS011;5412;59.450;18.124;2023-02-28T03:51:20;0.50;;;0.50;;
10721;SDS011;5412;59.450;18.124;2023-02-28T03:53:59;0.70;;;0.70;;
10721;SDS011;5412;59.450;18.124;2023-02-28T03:56:33;0.30;;;0.30;;
10721;SDS011;5412;59.450;18.124;2023-02-28T04:01:53;0.40;;;0.40;;
10721;SDS011;5412;59.450;18.124;2023-02-28T04:04:20;0.53;;;0.53;;
10721;SDS011;5412;59.450;18.124;2023-02-28T04:06:46;0.80;;;0.53;;
10721;SDS011;5412;59.450;18.124;2023-02-28T04:09:15;0.77;;;0.60;;
10721;SDS011;5412;59.450;18.124;2023-02-28T04:11:42;0.50;;;0.50;;
10721;SDS011;5412;59.450;18.124;2023-02-28T04:14:13;0.40;;;0.40;;
10721;SDS011;5412;59.450;18.124;2023-02-28T04:16:40;4.10;;;0.93;;
10721;SDS011;5412;59.450;18.124;2023-02-28T04:19:07;0.60;;;0.60;;
10721;SDS011;5412;59.450;18.124;2023-02-28T04:21:35;0.30;;;0.30;;
10721;SDS011;5412;59.450;18.124;2023-02-28T04:24:04;1.37;;;0.67;;
10721;SDS011;5412;59.450;18.124;2023-02-28T04:26:31;0.50;;;0.50;;
10721;SDS011;5412;59.450;18.124;2023-02-28T04:28:58;0.83;;;0.60;;
10721;SDS011;5412;59.450;18.124;2023-02-28T04:31:24;1.07;;;0.60;;
10721;SDS011;5412;59.450;18.124;2023-02-28T04:33:50;0.77;;;0.70;;
10721;SDS011;5412;59.450;18.124;2023-02-28T04:36:16;0.80;;;0.80;;
10721;SDS011;5412;59.450;18.124;2023-02-28T04:38:45;2.77;;;0.70;;
10721;SDS011;5412;59.450;18.124;2023-02-28T04:41:12;0.57;;;0.57;;
10721;SDS011;5412;59.450;18.124;2023-02-28T04:43:38;1.67;;;0.57;;
10721;SDS011;5412;59.450;18.124;2023-02-28T04:46:04;0.70;;;0.60;;
10721;SDS011;5412;59.450;18.124;2023-02-28T04:48:32;0.43;;;0.43;;
10721;SDS011;5412;59.450;18.124;2023-02-28T04:51:02;0.70;;;0.40;;
10721;SDS011;5412;59.450;18.124;2023-02-28T04:53:29;0.50;;;0.50;;
10721;SDS011;5412;59.450;18.124;2023-02-28T04:55:55;0.60;;;0.60;;
10721;SDS011;5412;59.450;18.124;2023-02-28T04:58:22;0.40;;;0.40;;
10721;SDS011;5412;59.450;18.124;2023-02-28T05:00:49;1.90;;;0.70;;
10721;SDS011;5412;59.450;18.124;2023-02-28T05:03:15;0.80;;;0.50;;
10721;SDS011;5412;59.450;18.124;2023-02-28T05:05:41;0.63;;;0.57;;
10721;SDS011;5412;59.450;18.124;2023-02-28T05:08:06;0.40;;;0.40;;
10721;SDS011;5412;59.450;18.124;2023-02-28T05:10:32;0.40;;;0.40;;
10721;SDS011;5412;59.450;18.124;2023-02-28T05:12:58;0.80;;;0.80;;
10721;SDS011;5412;59.450;18.124;2023-02-28T05:15:24;1.07;;;0.60;;
10721;SDS011;5412;59.450;18.124;2023-02-28T05:17:49;0.60;;;0.60;;
10721;SDS011;5412;59.450;18.124;2023-02-28T05:20:15;0.77;;;0.63;;
10721;SDS011;5412;59.450;18.124;2023-02-28T05:22:42;0.50;;;0.50;;
10721;SDS011;5412;59.450;18.124;2023-02-28T05:25:12;1.00;;;0.50;;
10721;SDS011;5412;59.450;18.124;2023-02-28T05:27:41;0.50;;;0.50;;
10721;SDS011;5412;59.450;18.124;2023-02-28T05:30:07;0.57;;;0.40;;
10721;SDS011;5412;59.450;18.124;2023-02-28T05:32:36;0.50;;;0.50;;
10721;SDS011;5412;59.450;18.124;2023-02-28T05:35:08;0.50;;;0.50;;
10721;SDS011;5412;59.450;18.124;2023-02-28T05:37:37;1.60;;;0.40;;
10721;SDS011;5412;59.450;18.124;2023-02-28T05:40:05;0.60;;;0.60;;
10721;SDS011;5412;59.450;18.124;2023-02-28T05:42:32;1.23;;;0.70;;
10721;SDS011;5412;59.450;18.124;2023-02-28T05:44:58;0.40;;;0.40;;
10721;SDS011;5412;59.450;18.124;2023-02-28T05:47:24;0.50;;;0.50;;
10721;SDS011;5412;59.450;18.124;2023-02-28T05:49:50;0.53;;;0.53;;
10721;SDS011;5412;59.450;18.124;2023-02-28T05:52:15;0.50;;;0.50;;
10721;SDS011;5412;59.450;18.124;2023-02-28T05:54:41;0.53;;;0.53;;
10721;SDS011;5412;59.450;18.124;2023-02-28T05:57:07;0.63;;;0.60;;
10721;SDS011;5412;59.450;18.124;2023-02-28T05:59:33;0.50;;;0.47;;
10721;SDS011;5412;59.450;18.124;2023-02-28T06:01:59;0.73;;;0.50;;
10721;SDS011;5412;59.450;18.124;2023-02-28T06:04:24;0.50;;;0.50;;
10721;SDS011;5412;59.450;18.124;2023-02-28T06:06:50;0.43;;;0.43;;
10721;SDS011;5412;59.450;18.124;2023-02-28T06:09:17;1.17;;;0.40;;
10721;SDS011;5412;59.450;18.124;2023-02-28T06:11:44;0.77;;;0.50;;
10721;SDS011;5412;59.450;18.124;2023-02-28T06:14:16;0.30;;;0.30;;
10721;SDS011;5412;59.450;18.124;2023-02-28T06:16:43;0.50;;;0.50;;
10721;SDS011;5412;59.450;18.124;2023-02-28T06:19:10;0.50;;;0.50;;
10721;SDS011;5412;59.450;18.124;2023-02-28T06:21:35;0.50;;;0.50;;
10721;SDS011;5412;59.450;18.124;2023-02-28T06:24:01;0.50;;;0.50;;
10721;SDS011;5412;59.450;18.124;2023-02-28T06:26:28;2.30;;;0.70;;
10721;SDS011;5412;59.450;18.124;2023-02-28T06:28:54;0.63;;;0.50;;
10721;SDS011;5412;59.450;18.124;2023-02-28T06:31:20;0.67;;;0.67;;
10721;SDS011;5412;59.450;18.124;2023-02-28T06:33:47;0.80;;;0.50;;
10721;SDS011;5412;59.450;18.124;2023-02-28T06:36:14;0.50;;;0.50;;
10721;SDS011;5412;59.450;18.124;2023-02-28T06:38:40;0.60;;;0.60;;
10721;SDS011;5412;59.450;18.124;2023-02-28T06:41:07;1.33;;;0.50;;
10721;SDS011;5412;59.450;18.124;2023-02-28T06:43:34;0.93;;;0.73;;
10721;SDS011;5412;59.450;18.124;2023-02-28T06:46:02;0.60;;;0.60;;
10721;SDS011;5412;59.450;18.124;2023-02-28T06:48:29;0.60;;;0.60;;
10721;SDS011;5412;59.450;18.124;2023-02-28T06:51:05;0.60;;;0.60;;
10721;SDS011;5412;59.450;18.124;2023-02-28T06:53:35;2.77;;;0.70;;
10721;SDS011;5412;59.450;18.124;2023-02-28T06:56:08;0.40;;;0.40;;
10721;SDS011;5412;59.450;18.124;2023-02-28T06:58:35;2.43;;;0.40;;
10721;SDS011;5412;59.450;18.124;2023-02-28T07:01:02;0.30;;;0.30;;
10721;SDS011;5412;59.450;18.124;2023-02-28T07:03:28;0.83;;;0.40;;
10721;SDS011;5412;59.450;18.124;2023-02-28T07:05:54;0.70;;;0.70;;
10721;SDS011;5412;59.450;18.124;2023-02-28T07:08:22;0.40;;;0.40;;
10721;SDS011;5412;59.450;18.124;2023-02-28T07:10:51;0.40;;;0.40;;
10721;SDS011;5412;59.450;18.124;2023-02-28T07:13:18;0.47;;;0.40;;
10721;SDS011;5412;59.450;18.124;2023-02-28T07:15:43;0.60;;;0.60;;
10721;SDS011;5412;59.450;18.124;2023-02-28T07:18:09;0.60;;;0.60;;
10721;SDS011;5412;59.450;18.124;2023-02-28T07:20:35;0.77;;;0.60;;
10721;SDS011;5412;59.450;18.124;2023-02-28T07:23:01;0.90;;;0.40;;
10721;SDS011;5412;59.450;18.124;2023-02-28T07:25:27;0.40;;;0.40;;
10721;SDS011;5412;59.450;18.124;2023-02-28T07:27:54;1.13;;;0.40;;
10721;SDS011;5412;59.450;18.124;2023-02-28T07:30:21;0.40;;;0.40;;
10721;SDS011;5412;59.450;18.124;2023-02-28T07:32:47;0.40;;;0.40;;
10721;SDS011;5412;59.450;18.124;2023-02-28T07:35:13;0.40;;;0.40;;
10721;SDS011;5412;59.450;18.124;2023-02-28T07:37:40;1.70;;;0.50;;
10721;SDS011;5412;59.450;18.124;2023-02-28T07:40:07;1.03;;;0.50;;
10721;SDS011;5412;59.450;18.124;2023-02-28T07:42:38;0.70;;;0.40;;
10721;SDS011;5412;59.450;18.124;2023-02-28T07:45:05;1.10;;;0.50;;
10721;SDS011;5412;59.450;18.124;2023-02-28T07:47:32;0.80;;;0.63;;
10721;SDS011;5412;59.450;18.124;2023-02-28T07:49:57;0.50;;;0.50;;
10721;SDS011;5412;59.450;18.124;2023-02-28T07:52:23;0.50;;;0.50;;
10721;SDS011;5412;59.450;18.124;2023-02-28T07:54:50;0.53;;;0.53;;
10721;SDS011;5412;59.450;18.124;2023-02-28T07:57:16;0.50;;;0.50;;
10721;SDS011;5412;59.450;18.124;2023-02-28T07:59:42;0.50;;;0.50;;
10721;SDS011;5412;59.450;18.124;2023-02-28T08:02:14;1.97;;;0.40;;
10721;SDS011;5412;59.450;18.124;2023-02-28T08:04:41;0.70;;;0.50;;
10721;SDS011;5412;59.450;18.124;2023-02-28T08:07:07;0.60;;;0.60;;
10721;SDS011;5412;59.450;18.124;2023-02-28T08:09:33;0.50;;;0.50;;
10721;SDS011;5412;59.450;18.124;2023-02-28T08:11:59;0.90;;;0.57;;
10721;SDS011;5412;59.450;18.124;2023-02-28T08:14:25;0.50;;;0.50;;
10721;SDS011;5412;59.450;18.124;2023-02-28T08:16:51;0.93;;;0.60;;
10721;SDS011;5412;59.450;18.124;2023-02-28T08:19:17;0.60;;;0.40;;
10721;SDS011;5412;59.450;18.124;2023-02-28T08:21:43;0.60;;;0.60;;
10721;SDS011;5412;59.450;18.124;2023-02-28T08:24:08;0.50;;;0.50;;
10721;SDS011;5412;59.450;18.124;2023-02-28T08:26:34;0.70;;;0.50;;
10721;SDS011;5412;59.450;18.124;2023-02-28T08:29:00;0.70;;;0.70;;
10721;SDS011;5412;59.450;18.124;2023-02-28T08:31:26;0.63;;;0.60;;
10721;SDS011;5412;59.450;18.124;2023-02-28T08:33:51;0.87;;;0.70;;
10721;SDS011;5412;59.450;18.124;2023-02-28T08:36:18;0.60;;;0.60;;
10721;SDS011;5412;59.450;18.124;2023-02-28T08:38:44;0.43;;;0.43;;
10721;SDS011;5412;59.450;18.124;2023-02-28T08:41:11;1.00;;;0.50;;
10721;SDS011;5412;59.450;18.124;2023-02-28T08:43:38;0.80;;;0.70;;
10721;SDS011;5412;59.450;18.124;2023-02-28T08:46:05;1.03;;;0.70;;
10721;SDS011;5412;59.450;18.124;2023-02-28T08:48:32;0.90;;;0.70;;
10721;SDS011;5412;59.450;18.124;2023-02-28T08:51:03;0.60;;;0.60;;
10721;SDS011;5412;59.450;18.124;2023-02-28T08:53:32;0.63;;;0.60;;
10721;SDS011;5412;59.450;18.124;2023-02-28T08:55:58;3.00;;;0.50;;
10721;SDS011;5412;59.450;18.124;2023-02-28T08:58:26;0.77;;;0.40;;
10721;SDS011;5412;59.450;18.124;2023-02-28T09:00:52;2.13;;;0.70;;
10721;SDS011;5412;59.450;18.124;2023-02-28T09:03:18;1.27;;;0.60;;
10721;SDS011;5412;59.450;18.124;2023-02-28T09:05:54;0.57;;;0.57;;
10721;SDS011;5412;59.450;18.124;2023-02-28T09:08:24;0.50;;;0.50;;
10721;SDS011;5412;59.450;18.124;2023-02-28T09:10:52;1.50;;;0.47;;
10721;SDS011;5412;59.450;18.124;2023-02-28T09:13:19;0.50;;;0.40;;
10721;SDS011;5412;59.450;18.124;2023-02-28T09:15:45;1.07;;;0.70;;
10721;SDS011;5412;59.450;18.124;2023-02-28T09:18:11;0.60;;;0.57;;
10721;SDS011;5412;59.450;18.124;2023-02-28T09:20:37;0.50;;;0.50;;
10721;SDS011;5412;59.450;18.124;2023-02-28T09:23:04;1.13;;;0.40;;
10721;SDS011;5412;59.450;18.124;2023-02-28T09:25:31;1.60;;;0.50;;
10721;SDS011;5412;59.450;18.124;2023-02-28T09:27:56;0.93;;;0.60;;
10721;SDS011;5412;59.450;18.124;2023-02-28T09:30:22;0.53;;;0.53;;
10721;SDS011;5412;59.450;18.124;2023-02-28T09:32:48;1.47;;;0.70;;
10721;SDS011;5412;59.450;18.124;2023-02-28T09:35:23;0.50;;;0.50;;
10721;SDS011;5412;59.450;18.124;2023-02-28T09:37:50;0.93;;;0.60;;
10721;SDS011;5412;59.450;18.124;2023-02-28T09:40:17;0.40;;;0.40;;
10721;SDS011;5412;59.450;18.124;2023-02-28T09:42:47;0.40;;;0.40;;
10721;SDS011;5412;59.450;18.124;2023-02-28T09:47:54;1.50;;;0.53;;
10721;SDS011;5412;59.450;18.124;2023-02-28T09:50:38;0.57;;;0.40;;
10721;SDS011;5412;59.450;18.124;2023-02-28T09:53:13;1.13;;;0.40;;
10721;SDS011;5412;59.450;18.124;2023-02-28T09:55:46;2.37;;;0.57;;
10721;SDS011;5412;59.450;18.124;2023-02-28T09:58:20;0.50;;;0.30;;
10721;SDS011;5412;59.450;18.124;2023-02-28T10:00:50;2.43;;;0.50;;
10721;SDS011;5412;59.450;18.124;2023-02-28T10:03:32;0.50;;;0.50;;
10721;SDS011;5412;59.450;18.124;2023-02-28T10:06:07;1.23;;;0.47;;
10721;SDS011;5412;59.450;18.124;2023-02-28T10:09:02;0.30;;;0.30;;
10721;SDS011;5412;59.450;18.124;2023-02-28T10:11:34;6.10;;;1.07;;
10721;SDS011;5412;59.450;18.124;2023-02-28T10:14:04;0.43;;;0.43;;
10721;SDS011;5412;59.450;18.124;2023-02-28T10:16:35;1.80;;;0.53;;
10721;SDS011;5412;59.450;18.124;2023-02-28T10:19:03;1.13;;;0.40;;
10721;SDS011;5412;59.450;18.124;2023-02-28T10:24:14;1.10;;;0.60;;
10721;SDS011;5412;59.450;18.124;2023-02-28T10:26:48;0.53;;;0.53;;
10721;SDS011;5412;59.450;18.124;2023-02-28T10:29:17;1.23;;;0.63;;
10721;SDS011;5412;59.450;18.124;2023-02-28T10:31:43;0.70;;;0.70;;
10721;SDS011;5412;59.450;18.124;2023-02-28T10:34:10;0.93;;;0.60;;
10721;SDS011;5412;59.450;18.124;2023-02-28T10:36:38;0.77;;;0.70;;
10721;SDS011;5412;59.450;18.124;2023-02-28T10:39:33;2.47;;;0.63;;
10721;SDS011;5412;59.450;18.124;2023-02-28T10:42:03;1.73;;;0.90;;
10721;SDS011;5412;59.450;18.124;2023-02-28T10:44:29;0.80;;;0.60;;
10721;SDS011;5412;59.450;18.124;2023-02-28T10:46:55;0.70;;;0.53;;
10721;SDS011;5412;59.450;18.124;2023-02-28T10:49:23;0.97;;;0.60;;
10721;SDS011;5412;59.450;18.124;2023-02-28T10:51:52;0.30;;;0.30;;
10721;SDS011;5412;59.450;18.124;2023-02-28T10:54:24;0.80;;;0.40;;
10721;SDS011;5412;59.450;18.124;2023-02-28T10:59:45;0.57;;;0.40;;
10721;SDS011;5412;59.450;18.124;2023-02-28T11:05:30;0.40;;;0.40;;
10721;SDS011;5412;59.450;18.124;2023-02-28T11:08:18;0.30;;;0.30;;
10721;SDS011;5412;59.450;18.124;2023-02-28T11:10:44;0.43;;;0.40;;
10721;SDS011;5412;59.450;18.124;2023-02-28T11:13:25;0.30;;;0.30;;
10721;SDS011;5412;59.450;18.124;2023-02-28T11:15:58;0.27;;;0.27;;
10721;SDS011;5412;59.450;18.124;2023-02-28T11:21:06;1.90;;;0.40;;
10721;SDS011;5412;59.450;18.124;2023-02-28T11:23:35;0.43;;;0.43;;
10721;SDS011;5412;59.450;18.124;2023-02-28T11:26:05;1.02;;;0.38;;
10721;SDS011;5412;59.450;18.124;2023-02-28T11:28:36;1.13;;;0.40;;
10721;SDS011;5412;59.450;18.124;2023-02-28T11:33:52;0.45;;;0.35;;
10721;SDS011;5412;59.450;18.124;2023-02-28T11:36:24;0.37;;;0.37;;
10721;SDS011;5412;59.450;18.124;2023-02-28T11:39:03;0.47;;;0.47;;
10721;SDS011;5412;59.450;18.124;2023-02-28T11:52:56;0.60;;;0.50;;
10721;SDS011;5412;59.450;18.124;2023-02-28T11:55:27;0.35;;;0.30;;
10721;SDS011;5412;59.450;18.124;2023-02-28T11:58:47;0.32;;;0.32;;
10721;SDS011;5412;59.450;18.124;2023-02-28T12:11:55;1.38;;;0.50;;
10721;SDS011;5412;59.450;18.124;2023-02-28T12:17:18;0.75;;;0.25;;
10721;SDS011;5412;59.450;18.124;2023-02-28T12:22:38;0.68;;;0.50;;
10721;SDS011;5412;59.450;18.124;2023-02-28T12:28:01;1.40;;;0.40;;
10721;SDS011;5412;59.450;18.124;2023-02-28T12:30:31;0.82;;;0.40;;
10721;SDS011;5412;59.450;18.124;2023-02-28T12:35:37;0.82;;;0.20;;
10721;SDS011;5412;59.450;18.124;2023-02-28T12:38:14;0.73;;;0.35;;
10721;SDS011;5412;59.450;18.124;2023-02-28T12:40:48;0.45;;;0.40;;
10721;SDS011;5412;59.450;18.124;2023-02-28T12:43:40;0.35;;;0.30;;
10721;SDS011;5412;59.450;18.124;2023-02-28T12:46:15;0.85;;;0.60;;
10721;SDS011;5412;59.450;18.124;2023-02-28T12:48:47;0.50;;;0.50;;
10721;SDS011;5412;59.450;18.124;2023-02-28T12:51:18;0.38;;;0.35;;
10721;SDS011;5412;59.450;18.124;2023-02-28T12:59:20;0.40;;;0.40;;
10721;SDS011;5412;59.450;18.124;2023-02-28T13:01:53;0.40;;;0.40;;
10721;SDS011;5412;59.450;18.124;2023-02-28T13:09:57;2.42;;;1.02;;
10721;SDS011;5412;59.450;18.124;2023-02-28T13:12:25;0.30;;;0.30;;
10721;SDS011;5412;59.450;18.124;2023-02-28T13:15:00;0.40;;;0.40;;
10721;SDS011;5412;59.450;18.124;2023-02-28T13:17:47;0.30;;;0.30;;
10721;SDS011;5412;59.450;18.124;2023-02-28T13:23:01;0.50;;;0.50;;
10721;SDS011;5412;59.450;18.124;2023-02-28T13:27:59;0.63;;;0.25;;
10721;SDS011;5412;59.450;18.124;2023-02-28T13:33:30;0.22;;;0.22;;
10721;SDS011;5412;59.450;18.124;2023-02-28T13:49:23;0.65;;;0.55;;
10721;SDS011;5412;59.450;18.124;2023-02-28T13:52:02;0.32;;;0.32;;
10721;SDS011;5412;59.450;18.124;2023-02-28T13:54:54;0.50;;;0.50;;
10721;SDS011;5412;59.450;18.124;2023-02-28T13:57:42;0.30;;;0.30;;
10721;SDS011;5412;59.450;18.124;2023-02-28T14:00:31;0.85;;;0.52;;
10721;SDS011;5412;59.450;18.124;2023-02-28T14:06:16;0.73;;;0.40;;
10721;SDS011;5412;59.450;18.124;2023-02-28T14:11:40;0.40;;;0.40;;
10721;SDS011;5412;59.450;18.124;2023-02-28T14:14:09;0.40;;;0.40;;
10721;SDS011;5412;59.450;18.124;2023-02-28T14:16:55;0.40;;;0.40;;
10721;SDS011;5412;59.450;18.124;2023-02-28T14:19:26;0.40;;;0.40;;
10721;SDS011;5412;59.450;18.124;2023-02-28T14:27:21;0.40;;;0.40;;
10721;SDS011;5412;59.450;18.124;2023-02-28T14:33:00;1.40;;;0.50;;
10721;SDS011;5412;59.450;18.124;2023-02-28T14:38:52;0.50;;;0.50;;
10721;SDS011;5412;59.450;18.124;2023-02-28T14:41:22;0.30;;;0.30;;
10721;SDS011;5412;59.450;18.124;2023-02-28T14:44:12;0.90;;;0.40;;
10721;SDS011;5412;59.450;18.124;2023-02-28T14:46:41;0.30;;;0.30;;
10721;SDS011;5412;59.450;18.124;2023-02-28T14:49:26;1.60;;;0.47;;
10721;SDS011;5412;59.450;18.124;2023-02-28T14:52:09;2.78;;;0.30;;
10721;SDS011;5412;59.450;18.124;2023-02-28T14:54:44;1.25;;;0.40;;
10721;SDS011;5412;59.450;18.124;2023-02-28T15:00:26;0.65;;;0.45;;
10721;SDS011;5412;59.450;18.124;2023-02-28T15:02:55;1.13;;;0.50;;
10721;SDS011;5412;59.450;18.124;2023-02-28T15:05:29;0.30;;;0.30;;
10721;SDS011;5412;59.450;18.124;2023-02-28T15:08:17;0.70;;;0.50;;
10721;SDS011;5412;59.450;18.124;2023-02-28T15:10:56;1.27;;;0.80;;
10721;SDS011;5412;59.450;18.124;2023-02-28T15:13:46;0.55;;;0.55;;
10721;SDS011;5412;59.450;18.124;2023-02-28T15:16:20;1.25;;;0.63;;
10721;SDS011;5412;59.450;18.124;2023-02-28T15:19:00;1.13;;;0.80;;
10721;SDS011;5412;59.450;18.124;2023-02-28T15:21:29;2.97;;;0.80;;
10721;SDS011;5412;59.450;18.124;2023-02-28T15:23:59;0.90;;;0.77;;
10721;SDS011;5412;59.450;18.124;2023-02-28T15:26:32;0.65;;;0.65;;
10721;SDS011;5412;59.450;18.124;2023-02-28T15:29:06;1.40;;;0.88;;
10721;SDS011;5412;59.450;18.124;2023-02-28T15:31:41;1.10;;;0.68;;
10721;SDS011;5412;59.450;18.124;2023-02-28T15:34:20;0.70;;;0.70;;
10721;SDS011;5412;59.450;18.124;2023-02-28T15:37:00;0.77;;;0.70;;
10721;SDS011;5412;59.450;18.124;2023-02-28T15:39:27;0.82;;;0.70;;
10721;SDS011;5412;59.450;18.124;2023-02-28T15:42:12;0.68;;;0.60;;
10721;SDS011;5412;59.450;18.124;2023-02-28T15:44:43;1.05;;;0.90;;
10721;SDS011;5412;59.450;18.124;2023-02-28T15:47:22;0.52;;;0.50;;
10721;SDS011;5412;59.450;18.124;2023-02-28T15:52:23;3.00;;;0.85;;
10721;SDS011;5412;59.450;18.124;2023-02-28T15:57:40;3.00;;;1.17;;
10721;SDS011;5412;59.450;18.124;2023-02-28T16:00:09;0.65;;;0.65;;
10721;SDS011;5412;59.450;18.124;2023-02-28T16:02:44;1.45;;;1.05;;
10721;SDS011;5412;59.450;18.124;2023-02-28T16:07:39;1.73;;;0.90;;
10721;SDS011;5412;59.450;18.124;2023-02-28T16:10:08;1.77;;;0.80;;
10721;SDS011;5412;59.450;18.124;2023-02-28T16:12:36;1.83;;;1.17;;
10721;SDS011;5412;59.450;18.124;2023-02-28T16:17:46;2.33;;;1.52;;
10721;SDS011;5412;59.450;18.124;2023-02-28T16:20:22;2.33;;;1.30;;
10721;SDS011;5412;59.450;18.124;2023-02-28T16:22:50;1.85;;;1.25;;
10721;SDS011;5412;59.450;18.124;2023-02-28T16:25:18;2.93;;;1.77;;
10721;SDS011;5412;59.450;18.124;2023-02-28T16:27:46;2.00;;;1.73;;
10721;SDS011;5412;59.450;18.124;2023-02-28T16:30:16;1.38;;;1.27;;
10721;SDS011;5412;59.450;18.124;2023-02-28T16:32:50;4.60;;;1.50;;
10721;SDS011;5412;59.450;18.124;2023-02-28T16:35:17;2.90;;;1.30;;
10721;SDS011;5412;59.450;18.124;2023-02-28T16:37:44;2.53;;;1.53;;
10721;SDS011;5412;59.450;18.124;2023-02-28T16:40:17;1.63;;;0.80;;
10721;SDS011;5412;59.450;18.124;2023-02-28T16:42:46;0.90;;;0.80;;
10721;SDS011;5412;59.450;18.124;2023-02-28T16:45:20;2.87;;;0.90;;
10721;SDS011;5412;59.450;18.124;2023-02-28T16:47:48;1.70;;;0.93;;
10721;SDS011;5412;59.450;18.124;2023-02-28T16:50:15;0.93;;;0.80;;
10721;SDS011;5412;59.450;18.124;2023-02-28T16:52:42;1.03;;;0.70;;
10721;SDS011;5412;59.450;18.124;2023-02-28T16:55:09;2.17;;;1.00;;
10721;SDS011;5412;59.450;18.124;2023-02-28T16:57:35;1.53;;;0.60;;
10721;SDS011;5412;59.450;18.124;2023-02-28T17:00:02;1.27;;;0.67;;
10721;SDS011;5412;59.450;18.124;2023-02-28T17:02:29;2.93;;;0.90;;
10721;SDS011;5412;59.450;18.124;2023-02-28T17:04:55;1.20;;;0.80;;
10721;SDS011;5412;59.450;18.124;2023-02-28T17:07:21;4.47;;;1.00;;
10721;SDS011;5412;59.450;18.124;2023-02-28T17:09:46;1.17;;;0.83;;
10721;SDS011;5412;59.450;18.124;2023-02-28T17:12:12;1.00;;;0.90;;
10721;SDS011;5412;59.450;18.124;2023-02-28T17:14:39;1.93;;;0.70;;
10721;SDS011;5412;59.450;18.124;2023-02-28T17:17:05;3.87;;;0.90;;
10721;SDS011;5412;59.450;18.124;2023-02-28T17:19:31;1.80;;;0.60;;
10721;SDS011;5412;59.450;18.124;2023-02-28T17:21:59;0.93;;;0.70;;
10721;SDS011;5412;59.450;18.124;2023-02-28T17:24:25;1.53;;;0.80;;
10721;SDS011;5412;59.450;18.124;2023-02-28T17:26:51;0.97;;;0.70;;
10721;SDS011;5412;59.450;18.124;2023-02-28T17:29:20;1.50;;;0.87;;
10721;SDS011;5412;59.450;18.124;2023-02-28T17:31:46;1.83;;;1.20;;
10721;SDS011;5412;59.450;18.124;2023-02-28T17:34:13;2.33;;;1.30;;
10721;SDS011;5412;59.450;18.124;2023-02-28T17:36:46;2.93;;;0.90;;
10721;SDS011;5412;59.450;18.124;2023-02-28T17:39:17;2.30;;;0.80;;
10721;SDS011;5412;59.450;18.124;2023-02-28T17:41:50;1.40;;;1.00;;
10721;SDS011;5412;59.450;18.124;2023-02-28T17:44:16;4.77;;;1.50;;
10721;SDS011;5412;59.450;18.124;2023-02-28T17:46:44;6.30;;;1.33;;